San Fermin Berria — EBVW — position and weather

sailwx.info

Track history (hours):
 
Tides and Currents Weather Stations Pressure Air Temp Water Temp Dewpoint Dewpoint Depression Visibility Wind Speed Wind Dir Waves Ship Positions

San Fermin Berria

Last reported at 2014-Nov-27 12:22 UTC. Time now 2014-Dec-21 11:24 UTC.
Position N 43°23' W 001°48'.
Warning: this ship's position is 23 days out of date.

Length 30 m.

Type: Fishing. MMSI: 224114650.

Date/timePositionNaut miles runAvg speedWind from/ knotsBaromVisibWave heightAir tempDewpointWater temp
2014-Nov-27 12:22N 43°23' W 001°48'0 0.0
2014-Nov-27 11:23N 43°23' W 001°48'0 0.0
2014-Nov-27 10:32N 43°23' W 001°48'0 0.0
2014-Nov-27 09:32N 43°23' W 001°48'0 0.0
2014-Nov-27 07:26N 43°23' W 001°48'0 0.0
2014-Nov-27 06:05N 43°23' W 001°48'0 0.1
2014-Nov-27 05:32N 43°23' W 001°47'0 0.0
2014-Nov-26 09:27N 43°23' W 001°47'0 0.0
2014-Nov-25 09:05N 43°23' W 001°47'0 0.0
2014-Nov-24 23:11N 43°23' W 001°47'0 0.1
2014-Nov-24 21:33N 43°23' W 001°48'0 0.1
2014-Nov-24 17:25N 43°23' W 001°47'  
2014-Nov-21 08:32N 43°23' W 001°47'0 0.0
2014-Nov-21 07:33N 43°23' W 001°47'7 7.0
2014-Nov-21 06:30N 43°28' W 001°55'7 6.2
2014-Nov-21 05:26N 43°31' W 002°03'2 0.4
2014-Nov-20 23:20N 43°28' W 002°04'0 0.4
2014-Nov-20 22:33N 43°28' W 002°04'1 1.2
2014-Nov-20 21:30N 43°28' W 002°03'8 8.2
2014-Nov-20 20:33N 43°30' W 001°53'8 2.7
2014-Nov-20 17:31N 43°23' W 001°47'0 0.0
2014-Nov-20 08:30N 43°23' W 001°48'0 0.0
2014-Nov-20 07:33N 43°23' W 001°48'1 0.6
2014-Nov-20 06:33N 43°24' W 001°47'1010.2
2014-Nov-20 05:33N 43°34' W 001°47'10 9.2
2014-Nov-20 04:30N 43°43' W 001°46'10 9.7
2014-Nov-20 03:28N 43°53' W 001°44'9 9.6
2014-Nov-20 02:33N 44°02' W 001°43'10 9.4
2014-Nov-20 01:33N 44°12' W 001°41'12 9.7
2014-Nov-20 00:21N 44°23' W 001°38'1 0.8
2014-Nov-19 23:33N 44°23' W 001°37'1 0.5
2014-Nov-19 22:33N 44°23' W 001°37'3 2.8
2014-Nov-19 21:20N 44°19' W 001°37'1 0.9
2014-Nov-19 20:33N 44°19' W 001°36'3 2.6
2014-Nov-19 19:31N 44°16' W 001°35'4 4.2
2014-Nov-19 18:33N 44°12' W 001°37'12 9.9
2014-Nov-19 17:20N 44°00' W 001°38'37 1.4
2014-Nov-18 15:18N 43°24' W 001°47'  
Track history (hours):
 
Tides and Currents Weather Stations Pressure Air Temp Water Temp Dewpoint Dewpoint Depression Visibility Wind Speed Wind Dir Waves Ship Positions

San Fermin Berria

Last reported at 2014-Nov-27 12:22 UTC. Time now 2014-Dec-21 11:24 UTC.
Position N 43°23' W 001°48'.
Warning: this ship's position is 23 days out of date.

Length 30 m.

Type: Fishing. MMSI: 224114650.

Date/timePositionNaut miles runAvg speedWind from/ knotsBaromVisibWave heightAir tempDewpointWater temp
2014-Nov-27 12:22N 43°23' W 001°48'0 0.0
2014-Nov-27 11:23N 43°23' W 001°48'0 0.0
2014-Nov-27 10:32N 43°23' W 001°48'0 0.0
2014-Nov-27 09:32N 43°23' W 001°48'0 0.0
2014-Nov-27 07:26N 43°23' W 001°48'0 0.0
2014-Nov-27 06:05N 43°23' W 001°48'0 0.1
2014-Nov-27 05:32N 43°23' W 001°47'0 0.0
2014-Nov-26 09:27N 43°23' W 001°47'0 0.0
2014-Nov-25 09:05N 43°23' W 001°47'0 0.0
2014-Nov-24 23:11N 43°23' W 001°47'0 0.1
2014-Nov-24 21:33N 43°23' W 001°48'0 0.1
2014-Nov-24 17:25N 43°23' W 001°47'  
2014-Nov-21 08:32N 43°23' W 001°47'0 0.0
2014-Nov-21 07:33N 43°23' W 001°47'7 7.0
2014-Nov-21 06:30N 43°28' W 001°55'7 6.2
2014-Nov-21 05:26N 43°31' W 002°03'2 0.4
2014-Nov-20 23:20N 43°28' W 002°04'0 0.4
2014-Nov-20 22:33N 43°28' W 002°04'1 1.2
2014-Nov-20 21:30N 43°28' W 002°03'8 8.2
2014-Nov-20 20:33N 43°30' W 001°53'8 2.7
2014-Nov-20 17:31N 43°23' W 001°47'0 0.0
2014-Nov-20 08:30N 43°23' W 001°48'0 0.0
2014-Nov-20 07:33N 43°23' W 001°48'1 0.6
2014-Nov-20 06:33N 43°24' W 001°47'1010.2
2014-Nov-20 05:33N 43°34' W 001°47'10 9.2
2014-Nov-20 04:30N 43°43' W 001°46'10 9.7
2014-Nov-20 03:28N 43°53' W 001°44'9 9.6
2014-Nov-20 02:33N 44°02' W 001°43'10 9.4
2014-Nov-20 01:33N 44°12' W 001°41'12 9.7
2014-Nov-20 00:21N 44°23' W 001°38'1 0.8
2014-Nov-19 23:33N 44°23' W 001°37'1 0.5
2014-Nov-19 22:33N 44°23' W 001°37'3 2.8
2014-Nov-19 21:20N 44°19' W 001°37'1 0.9
2014-Nov-19 20:33N 44°19' W 001°36'3 2.6
2014-Nov-19 19:31N 44°16' W 001°35'4 4.2
2014-Nov-19 18:33N 44°12' W 001°37'12 9.9
2014-Nov-19 17:20N 44°00' W 001°38'37 1.4
2014-Nov-18 15:18N 43°24' W 001°47'  

Dump ship's entire track history